Time,TemperatureF,DewpointF,PressureIn,WindDirection,WindDirectionDegrees,WindSpeedMPH,WindSpeedGustMPH,Humidity,HourlyPrecipIn,Conditions,Clouds,dailyrainin,SolarRadiationWatts/m^2,SoftwareType,DateUTC
2013-02-05 00:03:00,44.0,31.0,-100.00,WSW,239,1.0,6.0,60,0.00,,,0.00,0.000000,,2013-02-05 05:03:00,
2013-02-05 00:12:00,44.0,31.0,-100.00,WSW,239,1.0,6.0,60,0.00,,,0.00,0.000000,,2013-02-05 05:12:00,
2013-02-05 00:22:00,44.0,31.0,-100.00,WSW,239,1.0,6.0,60,0.00,,,0.00,0.000000,,2013-02-05 05:22:00,
2013-02-05 00:52:00,44.0,32.0,-100.00,West,277,2.0,5.0,62,0.00,,,0.00,0.000000,,2013-02-05 05:52:00,
2013-02-05 01:02:00,44.0,32.0,-100.00,West,277,2.0,5.0,62,0.00,,,0.00,0.000000,,2013-02-05 06:02:00,
2013-02-05 01:11:00,44.0,32.0,-100.00,West,277,2.0,5.0,62,0.00,,,0.00,0.000000,,2013-02-05 06:11:00,
2013-02-05 01:22:00,44.0,32.0,-100.00,West,277,2.0,5.0,62,0.00,,,0.00,0.000000,,2013-02-05 06:22:00,
2013-02-05 01:52:00,42.0,32.0,-100.00,West,268,1.0,3.0,67,0.00,,,0.00,0.000000,,2013-02-05 06:52:00,
2013-02-05 02:01:00,42.0,32.0,-100.00,West,268,1.0,3.0,67,0.00,,,0.00,0.000000,,2013-02-05 07:01:00,
2013-02-05 02:11:00,42.0,32.0,-100.00,West,268,1.0,3.0,67,0.00,,,0.00,0.000000,,2013-02-05 07:11:00,
2013-02-05 02:22:00,42.0,32.0,-100.00,West,268,1.0,3.0,67,0.00,,,0.00,0.000000,,2013-02-05 07:22:00,
2013-02-05 02:52:00,41.0,31.0,-100.00,West,271,1.0,2.0,67,0.00,,,0.00,0.000000,,2013-02-05 07:52:00,
2013-02-05 03:52:00,40.0,30.0,-100.00,West,266,2.0,3.0,68,0.00,,,0.00,0.000000,,2013-02-05 08:52:00,
2013-02-05 04:52:00,41.0,31.0,-100.00,WSW,249,2.0,3.0,67,0.00,,,0.00,0.000000,,2013-02-05 09:52:00,
2013-02-05 05:02:00,41.0,31.0,-100.00,WSW,249,2.0,3.0,67,0.00,,,0.00,0.000000,,2013-02-05 10:02:00,
2013-02-05 05:11:00,41.0,31.0,-100.00,WSW,249,2.0,3.0,67,0.00,,,0.00,0.000000,,2013-02-05 10:11:00,
2013-02-05 05:21:00,41.0,31.0,-100.00,WSW,249,2.0,3.0,67,0.00,,,0.00,0.000000,,2013-02-05 10:21:00,
2013-02-05 05:52:00,42.0,31.0,-100.00,WSW,251,2.0,4.0,64,0.00,,,0.00,0.000000,,2013-02-05 10:52:00,
2013-02-05 06:01:00,42.0,31.0,-100.00,WSW,251,2.0,4.0,64,0.00,,,0.00,0.000000,,2013-02-05 11:01:00,
2013-02-05 06:11:00,42.0,31.0,-100.00,WSW,251,2.0,4.0,64,0.00,,,0.00,0.000000,,2013-02-05 11:11:00,
2013-02-05 06:22:00,42.0,31.0,-100.00,WSW,251,2.0,4.0,64,0.00,,,0.00,0.000000,,2013-02-05 11:22:00,
2013-02-05 06:52:00,44.0,32.0,-100.00,WSW,256,3.0,6.0,63,0.00,,,0.00,0.000000,,2013-02-05 11:52:00,
2013-02-05 07:02:00,44.0,32.0,-100.00,WSW,256,3.0,6.0,63,0.00,,,0.00,0.000000,,2013-02-05 12:02:00,
2013-02-05 07:12:00,44.0,32.0,-100.00,WSW,256,3.0,6.0,63,0.00,,,0.00,0.000000,,2013-02-05 12:12:00,
2013-02-05 07:22:00,44.0,32.0,-100.00,WSW,256,3.0,6.0,63,0.00,,,0.00,0.000000,,2013-02-05 12:22:00,
2013-02-05 07:52:00,44.0,32.0,-100.00,WSW,251,3.0,8.0,62,0.00,,,0.00,2.000000,,2013-02-05 12:52:00,
2013-02-05 08:02:00,44.0,32.0,-100.00,WSW,251,3.0,8.0,62,0.00,,,0.00,2.000000,,2013-02-05 13:02:00,
2013-02-05 08:12:00,44.0,32.0,-100.00,WSW,251,3.0,8.0,62,0.00,,,0.00,2.000000,,2013-02-05 13:12:00,
2013-02-05 08:22:00,44.0,32.0,-100.00,WSW,251,3.0,8.0,62,0.00,,,0.00,2.000000,,2013-02-05 13:22:00,
2013-02-05 08:52:00,47.0,34.0,-100.00,WSW,251,3.0,7.0,61,0.00,,,0.00,59.000000,,2013-02-05 13:52:00,
2013-02-05 09:01:00,47.0,34.0,-100.00,WSW,251,3.0,7.0,61,0.00,,,0.00,59.000000,,2013-02-05 14:01:00,
2013-02-05 09:12:00,47.0,34.0,-100.00,WSW,251,3.0,7.0,61,0.00,,,0.00,59.000000,,2013-02-05 14:12:00,
2013-02-05 09:22:00,47.0,34.0,-100.00,WSW,251,3.0,7.0,61,0.00,,,0.00,59.000000,,2013-02-05 14:22:00,
2013-02-05 09:52:00,54.0,38.0,-100.00,West,260,5.0,13.0,55,0.00,,,0.00,162.000000,,2013-02-05 14:52:00,
2013-02-05 10:02:00,54.0,38.0,-100.00,West,260,5.0,13.0,55,0.00,,,0.00,162.000000,,2013-02-05 15:02:00,
2013-02-05 10:11:00,54.0,38.0,-100.00,West,260,5.0,13.0,55,0.00,,,0.00,162.000000,,2013-02-05 15:11:00,
2013-02-05 10:21:00,54.0,38.0,-100.00,West,260,5.0,13.0,55,0.00,,,0.00,162.000000,,2013-02-05 15:21:00,
2013-02-05 10:52:00,59.0,39.0,-100.00,WSW,240,5.0,13.0,48,0.00,,,0.00,502.000000,,2013-02-05 15:52:00,
2013-02-05 11:01:00,59.0,39.0,-100.00,WSW,240,5.0,13.0,48,0.00,,,0.00,502.000000,,2013-02-05 16:01:00,
2013-02-05 11:12:00,59.0,39.0,-100.00,WSW,240,5.0,13.0,48,0.00,,,0.00,502.000000,,2013-02-05 16:12:00,
2013-02-05 11:22:00,59.0,39.0,-100.00,WSW,240,5.0,13.0,48,0.00,,,0.00,502.000000,,2013-02-05 16:22:00,
2013-02-05 11:52:00,60.0,40.0,-100.00,SW,222,5.0,13.0,47,0.00,,,-99.99,616.000000,,2013-02-05 16:52:00,
2013-02-05 12:01:00,60.0,40.0,-100.00,SW,222,5.0,13.0,47,0.00,,,-99.99,616.000000,,2013-02-05 17:01:00,
2013-02-05 12:12:00,60.0,40.0,-100.00,SW,222,5.0,13.0,47,0.00,,,-99.99,616.000000,,2013-02-05 17:12:00,
2013-02-05 12:22:00,60.0,40.0,-100.00,SW,222,5.0,13.0,47,0.00,,,-99.99,616.000000,,2013-02-05 17:22:00,
2013-02-05 12:52:00,63.0,41.0,-100.00,SW,229,6.0,14.0,44,0.00,,,0.00,677.000000,,2013-02-05 17:52:00,
2013-02-05 13:02:00,63.0,41.0,-100.00,SW,229,6.0,14.0,44,0.00,,,0.00,677.000000,,2013-02-05 18:02:00,
2013-02-05 13:11:00,63.0,41.0,-100.00,SW,229,6.0,14.0,44,0.00,,,0.00,677.000000,,2013-02-05 18:11:00,
2013-02-05 13:22:00,63.0,41.0,-100.00,SW,229,6.0,14.0,44,0.00,,,0.00,677.000000,,2013-02-05 18:22:00,
2013-02-05 13:52:00,59.0,41.0,-100.00,South,183,6.0,14.0,51,0.00,,,0.00,688.000000,,2013-02-05 18:52:00,
2013-02-05 14:02:00,59.0,41.0,-100.00,South,183,6.0,14.0,51,0.00,,,0.00,688.000000,,2013-02-05 19:02:00,
2013-02-05 14:11:00,59.0,41.0,-100.00,South,183,6.0,14.0,51,0.00,,,0.00,688.000000,,2013-02-05 19:11:00,
2013-02-05 14:22:00,59.0,41.0,-100.00,South,183,6.0,14.0,51,0.00,,,0.00,688.000000,,2013-02-05 19:22:00,
2013-02-05 14:52:00,60.0,42.0,-100.00,SSW,193,5.0,12.0,51,0.00,,,0.00,614.000000,,2013-02-05 19:52:00,
2013-02-05 15:02:00,60.0,42.0,-100.00,SSW,193,5.0,12.0,51,0.00,,,0.00,614.000000,,2013-02-05 20:02:00,
2013-02-05 15:11:00,60.0,42.0,-100.00,SSW,193,5.0,12.0,51,0.00,,,0.00,614.000000,,2013-02-05 20:11:00,
2013-02-05 15:21:00,60.0,42.0,-100.00,SSW,193,5.0,12.0,51,0.00,,,0.00,614.000000,,2013-02-05 20:21:00,
2013-02-05 15:52:00,60.0,42.0,-100.00,South,180,5.0,12.0,52,0.00,,,0.00,462.000000,,2013-02-05 20:52:00,
2013-02-05 16:02:00,60.0,42.0,-100.00,South,180,5.0,12.0,52,0.00,,,0.00,462.000000,,2013-02-05 21:02:00,
2013-02-05 16:11:00,60.0,42.0,-100.00,South,180,5.0,12.0,52,0.00,,,0.00,462.000000,,2013-02-05 21:11:00,
2013-02-05 16:22:00,60.0,42.0,-100.00,South,180,5.0,12.0,52,0.00,,,0.00,462.000000,,2013-02-05 21:22:00,
2013-02-05 16:52:00,57.0,42.0,-100.00,South,182,4.0,12.0,57,0.00,,,0.00,190.000000,,2013-02-05 21:52:00,
2013-02-05 17:02:00,57.0,42.0,-100.00,South,182,4.0,12.0,57,0.00,,,0.00,190.000000,,2013-02-05 22:02:00,
2013-02-05 17:12:00,57.0,42.0,-100.00,South,182,4.0,12.0,57,0.00,,,0.00,190.000000,,2013-02-05 22:12:00,
2013-02-05 17:22:00,57.0,42.0,-100.00,South,182,4.0,12.0,57,0.00,,,0.00,190.000000,,2013-02-05 22:22:00,
2013-02-05 17:52:00,55.0,41.0,-100.00,SSW,198,4.0,10.0,59,0.00,,,0.00,40.000000,,2013-02-05 22:52:00,
2013-02-05 18:02:00,55.0,41.0,-100.00,SSW,198,4.0,10.0,59,0.00,,,0.00,40.000000,,2013-02-05 23:02:00,
2013-02-05 18:11:00,55.0,41.0,-100.00,SSW,198,4.0,10.0,59,0.00,,,0.00,40.000000,,2013-02-05 23:11:00,
2013-02-05 18:22:00,55.0,41.0,-100.00,SSW,198,4.0,10.0,59,0.00,,,0.00,40.000000,,2013-02-05 23:22:00,
2013-02-05 18:53:00,52.0,39.0,-100.00,WSW,254,3.0,8.0,62,0.00,,,0.00,2.000000,,2013-02-05 23:53:00,
2013-02-05 19:02:00,52.0,39.0,-100.00,WSW,254,3.0,8.0,62,0.00,,,0.00,2.000000,,2013-02-06 00:02:00,
2013-02-05 19:12:00,52.0,39.0,-100.00,WSW,254,3.0,8.0,62,0.00,,,0.00,2.000000,,2013-02-06 00:12:00,
2013-02-05 19:22:00,52.0,39.0,-100.00,WSW,254,3.0,8.0,62,0.00,,,0.00,2.000000,,2013-02-06 00:22:00,
2013-02-05 19:52:00,52.0,40.0,-100.00,WSW,253,3.0,9.0,63,0.00,,,0.00,0.000000,,2013-02-06 00:52:00,
2013-02-05 20:02:00,52.0,40.0,-100.00,WSW,253,3.0,9.0,63,0.00,,,0.00,0.000000,,2013-02-06 01:02:00,
2013-02-05 20:12:00,52.0,40.0,-100.00,WSW,253,3.0,9.0,63,0.00,,,0.00,0.000000,,2013-02-06 01:12:00,
2013-02-05 20:22:00,52.0,40.0,-100.00,WSW,253,3.0,9.0,63,0.00,,,0.00,0.000000,,2013-02-06 01:22:00,
2013-02-05 20:53:00,51.0,39.0,-100.00,West,270,4.0,8.0,64,0.00,,,0.00,0.000000,,2013-02-06 01:53:00,
2013-02-05 21:02:00,51.0,39.0,-100.00,West,270,4.0,8.0,64,0.00,,,0.00,0.000000,,2013-02-06 02:02:00,
2013-02-05 21:12:00,51.0,39.0,-100.00,West,270,4.0,8.0,64,0.00,,,0.00,0.000000,,2013-02-06 02:12:00,
2013-02-05 21:22:00,51.0,39.0,-100.00,West,270,4.0,8.0,64,0.00,,,0.00,0.000000,,2013-02-06 02:22:00,
2013-02-05 21:53:00,49.0,39.0,-100.00,West,274,3.0,7.0,67,0.00,,,0.00,0.000000,,2013-02-06 02:53:00,
2013-02-05 22:03:00,49.0,39.0,-100.00,West,274,3.0,7.0,67,0.00,,,0.00,0.000000,,2013-02-06 03:03:00,
2013-02-05 22:12:00,49.0,39.0,-100.00,West,274,3.0,7.0,67,0.00,,,0.00,0.000000,,2013-02-06 03:12:00,
2013-02-05 22:22:00,49.0,39.0,-100.00,West,274,3.0,7.0,67,0.00,,,0.00,0.000000,,2013-02-06 03:22:00,
2013-02-05 22:53:00,49.0,39.0,-100.00,WSW,252,2.0,6.0,67,0.00,,,0.00,0.000000,,2013-02-06 03:53:00,
2013-02-05 23:02:00,49.0,39.0,-100.00,WSW,252,2.0,6.0,67,0.00,,,0.00,0.000000,,2013-02-06 04:02:00,
2013-02-05 23:11:00,49.0,39.0,-100.00,WSW,252,2.0,6.0,67,0.00,,,0.00,0.000000,,2013-02-06 04:11:00,
2013-02-05 23:22:00,49.0,39.0,-100.00,WSW,252,2.0,6.0,67,0.00,,,0.00,0.000000,,2013-02-06 04:22:00,
2013-02-05 23:52:00,49.0,39.0,-100.00,WNW,284,3.0,7.0,69,0.00,,,0.00,0.000000,,2013-02-06 04:52:00,